createdAt,value
2022-10-23T00:01:20.731Z,97451.95
2022-10-23T00:03:51.457Z,97455.12
2022-10-23T00:06:19.666Z,97456.53
2022-10-23T00:08:50.575Z,97453.58
2022-10-23T00:11:20.193Z,97458.17
2022-10-23T00:13:48.566Z,97454.84
2022-10-23T00:16:17.250Z,97451.88
2022-10-23T00:18:45.828Z,97453.30
2022-10-23T00:21:14.940Z,97449.61
2022-10-23T00:23:43.202Z,97450.61
2022-10-23T00:26:15.871Z,97456.54
2022-10-23T00:28:45.394Z,97456.80
2022-10-23T00:31:13.496Z,97461.88
2022-10-23T00:33:42.559Z,97459.13
2022-10-23T00:36:12.170Z,97468.10
2022-10-23T00:38:40.314Z,97475.21
2022-10-23T00:41:08.922Z,97479.90
2022-10-23T00:43:54.721Z,97482.54
2022-10-23T00:46:22.583Z,97486.98
2022-10-23T00:48:50.865Z,97486.31
2022-10-23T00:51:18.935Z,97488.46
2022-10-23T00:54:00.946Z,97494.28
2022-10-23T00:56:39.385Z,97497.15
2022-10-23T00:59:08.083Z,97495.36
2022-10-23T01:01:36.005Z,97499.55
2022-10-23T01:04:05.451Z,97505.20
2022-10-23T01:06:39.473Z,97509.04
2022-10-23T01:09:10.296Z,97506.07
2022-10-23T01:11:51.379Z,97510.67
2022-10-23T01:14:19.237Z,97515.36
2022-10-23T01:17:01.341Z,97521.93
2022-10-23T01:19:49.588Z,97528.02
2022-10-23T01:22:36.504Z,97536.00
2022-10-23T01:25:18.663Z,97539.31
2022-10-23T01:27:51.057Z,97542.09
2022-10-23T01:30:18.951Z,97544.91
2022-10-23T01:33:22.861Z,97544.30
2022-10-23T01:36:03.620Z,97545.13
2022-10-23T01:38:38.555Z,97551.72
2022-10-23T01:41:24.546Z,97557.80
2022-10-23T01:44:02.148Z,97557.27
2022-10-23T01:46:38.101Z,97559.96
2022-10-23T01:49:10.370Z,97560.16
2022-10-23T01:51:39.189Z,97560.12
2022-10-23T01:54:10.617Z,97562.13
2022-10-23T01:56:41.453Z,97566.61
2022-10-23T01:59:12.897Z,97567.98
2022-10-23T02:01:44.152Z,97571.85
2022-10-23T02:04:15.143Z,97575.66
2022-10-23T02:06:43.059Z,97579.23
2022-10-23T02:09:11.132Z,97584.73
2022-10-23T02:11:44.845Z,97588.67
2022-10-23T02:14:29.395Z,97585.69
2022-10-23T02:17:00.545Z,97582.80
2022-10-23T02:19:34.439Z,97581.19
2022-10-23T02:22:14.608Z,97584.74
2022-10-23T02:25:02.736Z,97587.44
2022-10-23T02:27:35.370Z,97593.36
2022-10-23T02:30:10.768Z,97595.97
2022-10-23T02:32:41.967Z,97600.95
2022-10-23T02:35:12.648Z,97603.10
2022-10-23T02:37:41.127Z,97606.87
2022-10-23T02:40:10.228Z,97608.44
2022-10-23T02:42:52.225Z,97614.20
2022-10-23T02:45:20.081Z,97623.41
2022-10-23T02:48:10.164Z,97623.16
2022-10-23T02:50:44.300Z,97626.79
2022-10-23T02:53:18.303Z,97638.98
2022-10-23T02:56:08.791Z,97643.83
2022-10-23T02:58:43.381Z,97650.67
2022-10-23T03:01:20.266Z,97655.89
2022-10-23T03:03:53.389Z,97657.05
2022-10-23T03:06:22.694Z,97655.84
2022-10-23T03:08:58.305Z,97662.12
2022-10-23T03:11:26.831Z,97668.64
2022-10-23T03:13:56.343Z,97668.39
2022-10-23T03:16:24.586Z,97668.13
2022-10-23T03:18:54.706Z,97675.89
2022-10-23T03:21:22.980Z,97676.31
2022-10-23T03:23:53.702Z,97678.62
2022-10-23T03:26:28.344Z,97677.45
2022-10-23T03:28:56.419Z,97679.45
2022-10-23T03:31:24.478Z,97683.66
2022-10-23T03:33:56.242Z,97687.48
2022-10-23T03:36:24.315Z,97686.64
2022-10-23T03:38:53.820Z,97690.38
2022-10-23T03:41:21.829Z,97700.27
2022-10-23T03:43:49.766Z,97707.08
2022-10-23T03:46:17.846Z,97708.30
2022-10-23T03:48:46.007Z,97708.91
2022-10-23T03:51:13.976Z,97709.73
2022-10-23T03:53:41.886Z,97706.70
2022-10-23T03:56:09.907Z,97708.68
2022-10-23T03:58:37.625Z,97714.02
2022-10-23T04:01:05.680Z,97713.22
2022-10-23T04:03:33.722Z,97710.35
2022-10-23T04:06:02.509Z,97712.11
2022-10-23T04:08:30.334Z,97710.16
2022-10-23T04:10:58.757Z,97714.08
2022-10-23T04:13:43.006Z,97708.24
2022-10-23T04:16:10.981Z,97712.78
2022-10-23T04:18:40.639Z,97715.55
2022-10-23T04:21:10.739Z,97720.95
2022-10-23T04:23:39.446Z,97725.80
2022-10-23T04:26:12.882Z,97724.48
2022-10-23T04:28:41.167Z,97725.52
2022-10-23T04:31:08.994Z,97722.45
2022-10-23T04:33:40.887Z,97728.34
2022-10-23T04:36:09.267Z,97728.64
2022-10-23T04:38:37.134Z,97723.88
2022-10-23T04:41:06.950Z,97722.98
2022-10-23T04:43:35.429Z,97725.39
2022-10-23T04:46:04.351Z,97729.23
2022-10-23T04:48:32.493Z,97731.94
2022-10-23T04:51:20.746Z,97732.85
2022-10-23T04:53:59.166Z,97737.81
2022-10-23T04:56:44.643Z,97739.31
2022-10-23T04:59:18.656Z,97741.45
2022-10-23T05:01:46.901Z,97748.95
2022-10-23T05:04:15.099Z,97755.50
2022-10-23T05:07:15.148Z,97753.60
2022-10-23T05:10:09.301Z,97757.35
2022-10-23T05:12:56.224Z,97765.87
2022-10-23T05:15:24.185Z,97766.06
2022-10-23T05:17:55.608Z,97767.25
2022-10-23T05:20:28.711Z,97775.52
2022-10-23T05:22:58.419Z,97779.41
2022-10-23T05:25:26.753Z,97783.02
2022-10-23T05:28:04.575Z,97786.35
2022-10-23T05:30:33.347Z,97791.00
2022-10-23T05:33:02.844Z,97796.42
2022-10-23T05:35:38.499Z,97800.23
2022-10-23T05:38:07.393Z,97803.02
2022-10-23T05:40:35.479Z,97803.39
2022-10-23T05:43:07.374Z,97805.59
2022-10-23T05:45:50.687Z,97808.42
2022-10-23T05:48:33.656Z,97808.33
2022-10-23T05:51:23.220Z,97814.78
2022-10-23T05:54:13.954Z,97816.77
2022-10-23T05:56:55.839Z,97819.45
2022-10-23T05:59:32.010Z,97822.86
2022-10-23T06:02:21.654Z,97828.20
2022-10-23T06:05:00.464Z,97832.35
2022-10-23T06:07:46.643Z,97837.30
2022-10-23T06:10:14.780Z,97843.06
2022-10-23T06:12:45.411Z,97843.69
2022-10-23T06:15:16.305Z,97847.94
2022-10-23T06:18:00.507Z,97850.72
2022-10-23T06:20:28.944Z,97853.92
2022-10-23T06:23:05.554Z,97856.39
2022-10-23T06:25:53.910Z,97860.24
2022-10-23T06:28:25.240Z,97862.39
2022-10-23T06:30:53.286Z,97867.36
2022-10-23T06:33:21.290Z,97873.39
2022-10-23T06:35:49.568Z,97873.52
2022-10-23T06:38:17.836Z,97871.91
2022-10-23T06:40:53.808Z,97873.52
2022-10-23T06:43:27.767Z,97877.01
2022-10-23T06:46:14.214Z,97879.24
2022-10-23T06:49:01.954Z,97883.05
2022-10-23T06:51:33.807Z,97884.14
2022-10-23T06:54:02.152Z,97888.77
2022-10-23T06:56:48.793Z,97891.64
2022-10-23T06:59:19.839Z,97893.15
2022-10-23T07:01:48.180Z,97898.61
2022-10-23T07:04:17.003Z,97896.24
2022-10-23T07:06:45.276Z,97898.40
2022-10-23T07:09:13.200Z,97903.11
2022-10-23T07:11:53.090Z,97907.73
2022-10-23T07:14:24.951Z,97910.15
2022-10-23T07:16:53.018Z,97917.00
2022-10-23T07:19:21.410Z,97922.63
2022-10-23T07:21:52.238Z,97919.08
2022-10-23T07:24:40.383Z,97916.79
2022-10-23T07:27:17.464Z,97915.65
2022-10-23T07:29:45.684Z,97914.98
2022-10-23T07:32:13.812Z,97912.87
2022-10-23T07:35:00.492Z,97908.49
2022-10-23T07:37:34.033Z,97910.46
2022-10-23T07:40:04.182Z,97909.11
2022-10-23T07:42:32.834Z,97908.27
2022-10-23T07:45:00.568Z,97913.27
2022-10-23T07:47:28.765Z,97921.92
2022-10-23T07:49:56.945Z,97927.80
2022-10-23T07:52:24.816Z,97930.23
2022-10-23T07:55:09.472Z,97933.62
2022-10-23T07:57:40.240Z,97937.35
2022-10-23T08:00:26.381Z,97943.86
2022-10-23T08:02:59.192Z,97945.96
2022-10-23T08:05:27.767Z,97942.91
2022-10-23T08:07:59.916Z,97943.81
2022-10-23T08:10:28.828Z,97944.02
2022-10-23T08:12:57.000Z,97942.04
2022-10-23T08:15:37.779Z,97943.92
2022-10-23T08:18:10.970Z,97947.35
2022-10-23T08:20:45.386Z,97950.37
2022-10-23T08:23:14.511Z,97951.39
2022-10-23T08:25:42.763Z,97949.30
2022-10-23T08:28:12.163Z,97953.05
2022-10-23T08:30:47.612Z,97956.27
2022-10-23T08:33:15.509Z,97959.23
2022-10-23T08:35:44.287Z,97957.77
2022-10-23T08:38:12.477Z,97962.85
2022-10-23T08:40:45.128Z,97967.41
2022-10-23T08:43:52.110Z,97969.05
2022-10-23T08:46:31.466Z,97967.86
2022-10-23T08:49:25.320Z,97963.64
2022-10-23T08:52:02.785Z,97963.95
2022-10-23T08:54:30.806Z,97962.73
2022-10-23T08:57:03.870Z,97966.38
2022-10-23T08:59:33.353Z,97968.50
2022-10-23T09:02:04.822Z,97971.39
2022-10-23T09:04:32.791Z,97973.36
2022-10-23T09:07:00.910Z,97977.68
2022-10-23T09:09:34.780Z,97974.27
2022-10-23T09:12:13.827Z,97977.28
2022-10-23T09:14:55.525Z,97978.92
2022-10-23T09:17:23.576Z,97982.05
2022-10-23T09:19:55.947Z,97984.98
2022-10-23T09:22:23.813Z,97986.14
2022-10-23T09:24:53.804Z,97986.66
2022-10-23T09:27:22.003Z,97990.38
2022-10-23T09:29:52.226Z,97989.54
2022-10-23T09:32:21.079Z,97983.77
2022-10-23T09:34:53.893Z,97982.05
2022-10-23T09:37:26.163Z,97976.54
2022-10-23T09:40:12.911Z,97980.98
2022-10-23T09:42:50.674Z,97983.10
2022-10-23T09:45:31.150Z,97978.12
2022-10-23T09:48:13.345Z,97971.77
2022-10-23T09:51:07.633Z,97969.54
2022-10-23T09:53:40.419Z,97972.08
2022-10-23T09:56:25.631Z,97974.02
2022-10-23T09:58:58.158Z,97978.45
2022-10-23T10:01:27.807Z,97977.55
2022-10-23T10:04:02.188Z,97977.32
2022-10-23T10:06:32.661Z,97977.27
2022-10-23T10:09:02.634Z,97976.52
2022-10-23T10:11:42.907Z,97973.52
2022-10-23T10:14:31.145Z,97970.73
2022-10-23T10:17:05.767Z,97964.37
2022-10-23T10:19:33.580Z,97958.13
2022-10-23T10:22:20.239Z,97956.17
2022-10-23T10:24:52.811Z,97953.85
2022-10-23T10:27:39.527Z,97947.27
2022-10-23T10:30:19.165Z,97950.49
2022-10-23T10:32:49.908Z,97956.14
2022-10-23T10:35:37.364Z,97956.72
2022-10-23T10:38:26.295Z,97958.65
2022-10-23T10:41:13.104Z,97960.30
2022-10-23T10:43:40.971Z,97953.98
2022-10-23T10:46:25.693Z,97955.95
2022-10-23T10:48:57.184Z,97951.23
2022-10-23T10:52:07.365Z,97951.77
2022-10-23T10:54:48.619Z,97958.55
2022-10-23T10:57:38.313Z,97956.19
2022-10-23T11:00:14.311Z,97957.00
2022-10-23T11:02:54.007Z,97960.47
2022-10-23T11:05:25.253Z,97961.98
2022-10-23T11:07:59.186Z,97964.10
2022-10-23T11:10:28.455Z,97961.95
2022-10-23T11:12:57.039Z,97963.52
2022-10-23T11:15:28.012Z,97958.23
2022-10-23T11:17:58.821Z,97960.02
2022-10-23T11:20:26.784Z,97960.36
2022-10-23T11:23:13.193Z,97962.41
2022-10-23T11:25:58.010Z,97961.14
2022-10-23T11:28:34.609Z,97965.11
2022-10-23T11:31:07.004Z,97963.96
2022-10-23T11:33:52.812Z,97956.02
2022-10-23T11:36:32.511Z,97952.39
2022-10-23T11:39:13.823Z,97951.52
2022-10-23T11:41:49.062Z,97952.58
2022-10-23T11:44:40.703Z,97943.80
2022-10-23T11:47:27.298Z,97945.06
2022-10-23T11:50:07.178Z,97940.98
2022-10-23T11:52:45.458Z,97941.45
2022-10-23T11:55:24.532Z,97940.19
2022-10-23T11:58:10.772Z,97943.95
2022-10-23T12:00:51.451Z,97947.38
2022-10-23T12:03:22.701Z,97946.83
2022-10-23T12:05:57.594Z,97949.10
2022-10-23T12:08:27.229Z,97950.75
2022-10-23T12:10:55.612Z,97950.91
2022-10-23T12:13:29.209Z,97946.23
2022-10-23T12:15:59.997Z,97947.45
2022-10-23T12:18:29.146Z,97941.71
2022-10-23T12:21:00.905Z,97937.41
2022-10-23T12:23:36.039Z,97937.87
2022-10-23T12:26:09.710Z,97938.14
2022-10-23T12:28:43.474Z,97940.20
2022-10-23T12:31:14.234Z,97938.20
2022-10-23T12:33:42.263Z,97933.77
2022-10-23T12:36:12.989Z,97931.23
2022-10-23T12:38:47.925Z,97930.39
2022-10-23T12:41:24.555Z,97929.38
2022-10-23T12:43:55.462Z,97935.23
2022-10-23T12:46:34.463Z,97935.34
2022-10-23T12:49:04.278Z,97939.28
2022-10-23T12:51:33.606Z,97944.52
2022-10-23T12:54:02.383Z,97944.35
2022-10-23T12:56:37.216Z,97939.70
2022-10-23T12:59:06.126Z,97938.90
2022-10-23T13:01:34.634Z,97934.42
2022-10-23T13:04:08.298Z,97931.55
2022-10-23T13:06:36.953Z,97934.77
2022-10-23T13:09:06.256Z,97937.02
2022-10-23T13:11:40.386Z,97939.09
2022-10-23T13:14:13.867Z,97937.62
2022-10-23T13:16:41.642Z,97928.29
2022-10-23T13:19:22.715Z,97930.62
2022-10-23T13:21:50.687Z,97936.08
2022-10-23T13:24:22.853Z,97939.40
2022-10-23T13:26:50.732Z,97941.79
2022-10-23T13:29:21.402Z,97947.17
2022-10-23T13:31:49.946Z,97948.86
2022-10-23T13:34:21.093Z,97951.33
2022-10-23T13:36:56.929Z,97955.60
2022-10-23T13:39:26.231Z,97948.50
2022-10-23T13:41:54.106Z,97951.07
2022-10-23T13:44:23.626Z,97955.63
2022-10-23T13:46:52.391Z,97953.45
2022-10-23T13:49:20.563Z,97955.94
2022-10-23T13:51:48.734Z,97955.63
2022-10-23T13:54:19.031Z,97953.83
2022-10-23T13:56:47.553Z,97958.29
2022-10-23T13:59:15.845Z,97957.27
2022-10-23T14:01:44.404Z,97954.73
2022-10-23T14:04:13.401Z,97955.55
2022-10-23T14:06:42.179Z,97956.29
2022-10-23T14:09:14.151Z,97956.27
2022-10-23T14:11:42.224Z,97957.86
2022-10-23T14:14:10.012Z,97954.34
2022-10-23T14:16:37.973Z,97952.02
2022-10-23T14:19:06.440Z,97951.02
2022-10-23T14:21:34.423Z,97950.61
2022-10-23T14:24:02.425Z,97951.77
2022-10-23T14:26:30.600Z,97953.98
2022-10-23T14:29:02.292Z,97954.23
2022-10-23T14:31:34.787Z,97957.02
2022-10-23T14:34:02.866Z,97954.89
2022-10-23T14:36:38.618Z,97951.63
2022-10-23T14:39:18.309Z,97951.13
2022-10-23T14:41:46.334Z,97951.15
2022-10-23T14:44:14.409Z,97947.89
2022-10-23T14:46:42.375Z,97947.73
2022-10-23T14:49:10.167Z,97947.85
2022-10-23T14:51:38.042Z,97951.42
2022-10-23T14:54:07.099Z,97953.21
2022-10-23T14:56:39.511Z,97953.50
2022-10-23T14:59:08.581Z,97951.16
2022-10-23T15:01:42.289Z,97951.09
2022-10-23T15:04:14.903Z,97950.06
2022-10-23T15:06:43.746Z,97948.36
2022-10-23T15:09:11.517Z,97948.77
2022-10-23T15:11:39.579Z,97949.79
2022-10-23T15:14:08.172Z,97950.40
2022-10-23T15:16:41.659Z,97947.61
2022-10-23T15:19:17.327Z,97948.59
2022-10-23T15:21:47.845Z,97949.90
2022-10-23T15:24:18.981Z,97952.70
2022-10-23T15:26:47.465Z,97952.33
2022-10-23T15:29:15.757Z,97957.13
2022-10-23T15:32:01.738Z,97958.91
2022-10-23T15:34:30.224Z,97960.02
2022-10-23T15:36:58.748Z,97961.41
2022-10-23T15:39:28.215Z,97964.41
2022-10-23T15:41:57.053Z,97966.06
2022-10-23T15:44:26.303Z,97971.64
2022-10-23T15:46:57.846Z,97978.80
2022-10-23T15:49:26.662Z,97984.10
2022-10-23T15:51:54.687Z,97989.45
2022-10-23T15:54:22.894Z,97996.42
2022-10-23T15:56:52.080Z,97996.33
2022-10-23T15:59:21.182Z,97995.18
2022-10-23T16:01:49.494Z,97998.95
2022-10-23T16:04:18.057Z,97999.76
2022-10-23T16:06:46.011Z,98002.70
2022-10-23T16:09:14.703Z,98006.48
2022-10-23T16:11:43.183Z,98008.11
2022-10-23T16:14:12.730Z,98010.88
2022-10-23T16:16:40.585Z,98006.14
2022-10-23T16:19:09.956Z,98001.76
2022-10-23T16:21:38.122Z,97999.28
2022-10-23T16:24:07.127Z,97997.18
2022-10-23T16:26:35.397Z,97996.23
2022-10-23T16:29:05.523Z,97997.59
2022-10-23T16:31:33.497Z,97998.58
2022-10-23T16:34:02.083Z,98001.56
2022-10-23T16:36:30.446Z,98000.20
2022-10-23T16:39:17.384Z,98006.23
2022-10-23T16:42:04.206Z,98007.32
2022-10-23T16:44:42.900Z,98012.17
2022-10-23T16:47:10.863Z,98014.56
2022-10-23T16:49:38.741Z,98022.16
2022-10-23T16:52:06.708Z,98032.71
2022-10-23T16:54:34.670Z,98035.40
2022-10-23T16:57:02.540Z,98039.60
2022-10-23T16:59:30.267Z,98042.75
2022-10-23T17:01:58.520Z,98043.94
2022-10-23T17:06:50.225Z,98044.23
2022-10-23T17:09:19.428Z,98043.64
2022-10-23T17:11:48.313Z,98047.11
2022-10-23T17:14:19.404Z,98047.90
2022-10-23T17:16:50.185Z,98047.58
2022-10-23T17:22:11.327Z,98050.48
2022-10-23T17:24:40.929Z,98052.65
2022-10-23T17:27:09.015Z,98056.46
2022-10-23T17:29:37.088Z,98050.91
2022-10-23T17:32:06.201Z,98047.88
2022-10-23T17:34:34.337Z,98043.95
2022-10-23T17:37:02.510Z,98041.46
2022-10-23T17:39:30.489Z,98037.05
2022-10-23T17:41:58.766Z,98032.77
2022-10-23T17:44:26.897Z,98029.84
2022-10-23T17:46:55.823Z,98025.95
2022-10-23T17:49:24.757Z,98023.34
2022-10-23T17:51:57.595Z,98021.30
2022-10-23T17:54:26.665Z,98021.91
2022-10-23T17:56:55.704Z,98019.83
2022-10-23T17:59:24.280Z,98020.65
2022-10-23T18:01:52.673Z,98022.86
2022-10-23T18:04:21.567Z,98023.26
2022-10-23T18:06:52.876Z,98026.11
2022-10-23T18:09:23.022Z,98021.80
2022-10-23T18:11:52.986Z,98019.48
2022-10-23T18:14:22.148Z,98018.86
2022-10-23T18:16:52.585Z,98022.34
2022-10-23T18:19:20.829Z,98020.84
2022-10-23T18:21:49.024Z,98015.79
2022-10-23T18:24:17.805Z,98013.23
2022-10-23T18:26:47.868Z,98010.21
2022-10-23T18:29:17.518Z,98004.44
2022-10-23T18:31:48.242Z,98005.02
2022-10-23T18:34:20.179Z,97998.70
2022-10-23T18:36:49.528Z,98000.46
2022-10-23T18:39:22.436Z,98002.68
2022-10-23T18:41:53.964Z,98001.24
2022-10-23T18:44:23.680Z,97997.84
2022-10-23T18:46:51.955Z,97998.20
2022-10-23T18:49:20.436Z,97995.72
2022-10-23T18:51:50.034Z,97999.59
2022-10-23T18:54:20.105Z,98002.56
2022-10-23T18:56:48.328Z,98001.20
2022-10-23T18:59:18.969Z,98003.39
2022-10-23T19:01:47.547Z,98002.02
2022-10-23T19:04:18.016Z,98000.70
2022-10-23T19:06:47.839Z,98003.30
2022-10-23T19:09:16.943Z,98001.99
2022-10-23T19:11:45.540Z,97997.78
2022-10-23T19:14:13.543Z,97997.44
2022-10-23T19:17:04.144Z,97999.92
2022-10-23T19:19:39.787Z,97992.59
2022-10-23T19:22:11.201Z,97985.48
2022-10-23T19:24:47.099Z,97986.46
2022-10-23T19:27:15.377Z,97985.83
2022-10-23T19:29:46.725Z,97984.33
2022-10-23T19:32:15.206Z,97985.62
2022-10-23T19:34:44.105Z,97994.52
2022-10-23T19:37:11.953Z,97993.44
2022-10-23T19:39:39.935Z,97992.47
2022-10-23T19:42:09.192Z,97994.95
2022-10-23T19:44:37.300Z,97996.84
2022-10-23T19:47:05.371Z,97997.58
2022-10-23T19:49:33.451Z,98005.09
2022-10-23T19:52:01.496Z,98003.05
2022-10-23T19:54:29.691Z,98006.56
2022-10-23T19:56:57.744Z,98005.20
2022-10-23T19:59:26.127Z,98004.73
2022-10-23T20:01:54.160Z,98008.88
2022-10-23T20:04:22.119Z,98008.04
2022-10-23T20:06:50.237Z,98003.84
2022-10-23T20:09:18.305Z,98002.23
2022-10-23T20:11:46.269Z,98000.10
2022-10-23T20:14:14.245Z,97997.95
2022-10-23T20:16:45.282Z,97998.77
2022-10-23T20:21:49.948Z,98004.92
2022-10-23T20:24:19.958Z,98000.83
2022-10-23T20:26:51.971Z,98002.21
2022-10-23T20:29:20.657Z,97996.10
2022-10-23T20:31:48.640Z,97993.41
2022-10-23T20:34:17.570Z,97999.31
2022-10-23T20:36:48.300Z,98001.69
2022-10-23T20:39:19.972Z,98002.01
2022-10-23T20:41:48.258Z,98006.54
2022-10-23T20:46:50.722Z,97999.62
2022-10-23T20:49:20.023Z,97998.73
2022-10-23T20:51:56.018Z,97997.16
2022-10-23T20:54:26.928Z,97998.02
2022-10-23T20:56:57.197Z,97997.54
2022-10-23T20:59:25.622Z,97998.56
2022-10-23T21:01:55.507Z,97995.79
2022-10-23T21:04:27.572Z,97998.05
2022-10-23T21:07:09.563Z,98002.64
2022-10-23T21:09:40.287Z,98005.45
2022-10-23T21:12:09.067Z,98001.75
2022-10-23T21:14:37.198Z,98000.13
2022-10-23T21:17:05.610Z,97989.91
2022-10-23T21:19:33.755Z,97994.03
2022-10-23T21:22:01.927Z,97986.73
2022-10-23T21:24:30.015Z,97987.65
2022-10-23T21:26:57.965Z,97981.05
2022-10-23T21:29:26.038Z,97974.00
2022-10-23T21:31:56.059Z,97966.95
2022-10-23T21:34:26.215Z,97959.77
2022-10-23T21:37:12.025Z,97957.39
2022-10-23T21:39:44.552Z,97949.79
2022-10-23T21:42:14.098Z,97947.74
2022-10-23T21:44:42.337Z,97949.59
2022-10-23T21:47:13.259Z,97945.63
2022-10-23T21:49:41.328Z,97959.18
2022-10-23T21:52:09.715Z,97967.30
2022-10-23T21:54:37.784Z,97981.20
2022-10-23T21:57:13.017Z,97982.96
2022-10-23T21:59:41.813Z,97982.77
2022-10-23T22:02:10.448Z,97980.42
2022-10-23T22:04:39.088Z,97976.50
2022-10-23T22:07:07.559Z,97968.19
2022-10-23T22:09:35.639Z,97959.25
2022-10-23T22:12:03.812Z,97961.89
2022-10-23T22:14:31.821Z,97959.87
2022-10-23T22:16:59.745Z,97963.40
2022-10-23T22:19:27.926Z,97964.24
2022-10-23T22:21:56.203Z,97964.71
2022-10-23T22:24:24.985Z,97971.20
2022-10-23T22:26:55.819Z,97979.28
2022-10-23T22:29:27.949Z,97988.55
2022-10-23T22:31:56.895Z,97992.13
2022-10-23T22:34:48.362Z,97995.36
2022-10-23T22:37:16.071Z,97997.38
2022-10-23T22:39:44.011Z,97996.52
2022-10-23T22:42:12.210Z,97999.87
2022-10-23T22:44:40.188Z,97995.09
2022-10-23T22:47:08.178Z,97994.76
2022-10-23T22:49:36.031Z,97986.27
2022-10-23T22:52:04.141Z,97978.08
2022-10-23T22:54:32.263Z,97975.91
2022-10-23T22:57:00.195Z,97979.48
2022-10-23T22:59:28.199Z,97984.06
2022-10-23T23:01:56.178Z,97980.42
2022-10-23T23:04:39.713Z,97984.36
2022-10-23T23:07:10.778Z,97979.27
2022-10-23T23:09:42.103Z,97978.04
2022-10-23T23:12:12.114Z,97981.17
2022-10-23T23:14:41.141Z,97980.86
2022-10-23T23:17:09.811Z,97984.42
2022-10-23T23:19:38.490Z,97986.54
2022-10-23T23:22:06.653Z,97984.02
2022-10-23T23:24:34.835Z,97987.88
2022-10-23T23:27:02.804Z,97982.88
2022-10-23T23:29:31.483Z,97980.71
2022-10-23T23:32:00.273Z,97979.60
2022-10-23T23:34:28.869Z,97981.89
2022-10-23T23:36:56.903Z,97985.40
2022-10-23T23:39:26.249Z,97981.11
2022-10-23T23:41:54.207Z,97978.50
2022-10-23T23:44:22.144Z,97980.13
2022-10-23T23:46:50.029Z,97978.85
2022-10-23T23:49:18.107Z,97980.74
2022-10-23T23:51:45.988Z,97980.11
2022-10-23T23:54:14.053Z,97978.98
2022-10-23T23:56:42.144Z,97973.46
2022-10-23T23:59:10.099Z,97972.83
